Time;durP1;ratioP1;P1;durP2;ratioP2;P2;SDS_P1;SDS_P2;PMS_P1;PMS_P2;Temp;Humidity;BMP_temperature;BMP_pressure;BME280_temperature;BME280_humidity;BME280_pressure;Samples;Min_cycle;Max_cycle;Signal;HPM_P1;HPM_P2
2021/06/09 00:01:04;;;;;;;7.67;3.12;;;;;;;18.05;69.29;100883.25;1806878;79;25805;-62
2021/06/09 00:03:33;;;;;;;6.97;2.40;;;;;;;18.08;69.13;100882.89;1807568;79;26181;-62
2021/06/09 00:06:00;;;;;;;8.48;3.35;;;;;;;18.09;69.14;100871.81;1777277;79;25779;-61
2021/06/09 00:08:27;;;;;;;8.20;3.95;;;;;;;18.08;69.27;100872.00;1768848;79;27462;-62
2021/06/09 00:10:57;;;;;;;6.90;2.67;;;;;;;18.03;68.73;100871.19;1754308;80;26395;-62
2021/06/09 00:13:30;;;;;;;7.65;2.37;;;;;;;17.95;68.35;100870.70;1754367;81;25711;-62
2021/06/09 00:16:02;;;;;;;8.85;2.70;;;;;;;17.86;67.69;100885.40;1754678;80;25765;-61
2021/06/09 00:18:29;;;;;;;10.68;3.10;;;;;;;17.79;67.87;100883.94;1759559;80;25888;-61
2021/06/09 00:20:56;;;;;;;5.28;2.42;;;;;;;17.80;68.38;100874.72;1724892;83;27444;-61
2021/06/09 00:23:27;;;;;;;5.22;2.98;;;;;;;17.84;68.58;100880.64;1780497;79;25846;-62
2021/06/09 00:25:54;;;;;;;8.13;3.35;;;;;;;17.84;68.39;100876.06;1776139;80;25520;-61
2021/06/09 00:28:21;;;;;;;8.20;3.42;;;;;;;17.81;67.85;100870.14;1774902;80;26482;-61
2021/06/09 00:30:49;;;;;;;4.75;2.67;;;;;;;17.73;67.38;100879.73;1766336;79;25493;-62
2021/06/09 00:33:18;;;;;;;4.30;2.90;;;;;;;17.67;67.52;100872.60;1765548;80;45478;-62
2021/06/09 00:35:45;;;;;;;7.30;2.98;;;;;;;17.64;67.41;100887.08;1771460;80;26216;-61
2021/06/09 00:38:12;;;;;;;4.22;2.90;;;;;;;17.55;67.22;100877.28;1772117;79;25886;-62
2021/06/09 00:40:39;;;;;;;10.60;3.42;;;;;;;17.45;67.32;100881.07;1771982;80;25814;-62
2021/06/09 00:43:17;;;;;;;5.97;3.40;;;;;;;17.39;67.30;100871.45;1688716;85;25807;-61
2021/06/09 00:45:48;;;;;;;8.15;3.00;;;;;;;17.38;67.50;100869.22;1727721;81;27481;-61
2021/06/09 00:48:15;;;;;;;7.65;3.45;;;;;;;17.38;67.20;100871.95;1730075;82;25460;-61
2021/06/09 00:50:42;;;;;;;5.85;3.22;;;;;;;17.28;67.39;100866.73;1717230;83;25629;-61
2021/06/09 00:56:06;;;;;;;10.18;4.03;;;;;;;17.11;67.23;100863.25;1656118;85;25877;-62
2021/06/09 00:58:33;;;;;;;7.45;3.70;;;;;;;17.03;67.60;100864.13;1663232;85;27517;-61
2021/06/09 01:01:00;;;;;;;4.47;2.83;;;;;;;17.03;68.20;100860.05;1757091;79;25996;-62
2021/06/09 01:03:28;;;;;;;8.93;3.12;;;;;;;17.02;68.17;100859.73;1796259;79;25727;-61
2021/06/09 01:05:55;;;;;;;6.58;3.42;;;;;;;17.03;68.37;100856.49;1716920;82;25753;-62
2021/06/09 01:08:23;;;;;;;7.60;2.90;;;;;;;17.00;68.63;100850.91;1717741;82;25787;-62
2021/06/09 01:10:53;;;;;;;5.90;3.10;;;;;;;16.98;69.29;100853.47;1717282;83;27453;-62
2021/06/09 01:13:26;;;;;;;6.97;3.12;;;;;;;16.89;69.55;100859.41;1731191;81;25798;-62
2021/06/09 01:15:53;;;;;;;5.25;2.90;;;;;;;16.85;69.40;100858.08;1704774;82;25854;-62
2021/06/09 01:18:21;;;;;;;7.00;2.87;;;;;;;16.82;69.50;100859.25;1772185;79;25763;-62
2021/06/09 01:20:49;;;;;;;4.47;2.45;;;;;;;16.84;69.70;100861.81;1771861;80;26133;-62
2021/06/09 01:23:17;;;;;;;7.75;3.25;;;;;;;16.85;70.17;100859.44;1774472;80;27409;-62
2021/06/09 01:25:48;;;;;;;8.20;2.67;;;;;;;16.83;69.73;100863.66;1717085;83;25771;-62
2021/06/09 01:28:16;;;;;;;6.67;3.05;;;;;;;16.84;69.98;100863.17;1713712;81;25828;-61
2021/06/09 01:30:45;;;;;;;8.20;3.00;;;;;;;16.86;70.09;100861.10;1715638;82;26497;-62
2021/06/09 01:33:15;;;;;;;10.10;2.80;;;;;;;16.86;70.08;100861.10;1717623;83;25796;-63
2021/06/09 01:35:43;;;;;;;9.45;2.70;;;;;;;16.87;69.96;100854.16;1702621;84;28130;-62
2021/06/09 01:38:11;;;;;;;8.68;3.17;;;;;;;16.87;69.74;100861.44;1688660;84;25693;-62
2021/06/09 01:40:40;;;;;;;7.30;3.40;;;;;;;16.78;69.85;100857.92;1719967;82;25725;-62
2021/06/09 01:43:07;;;;;;;7.75;3.65;;;;;;;16.69;69.25;100861.69;1702382;84;25787;-63
2021/06/09 01:45:37;;;;;;;5.47;2.87;;;;;;;16.63;69.30;100860.51;1704157;83;25722;-62
2021/06/09 01:48:07;;;;;;;11.88;3.37;;;;;;;16.61;69.36;100863.91;1772330;80;27417;-62
2021/06/09 01:50:36;;;;;;;7.17;3.27;;;;;;;16.53;69.19;100866.15;1752612;80;25798;-62
2021/06/09 01:53:04;;;;;;;9.10;3.72;;;;;;;16.53;69.65;100862.08;1717520;82;25810;-62
2021/06/09 01:55:34;;;;;;;12.60;3.83;;;;;;;16.56;70.01;100860.87;1704515;84;25791;-61
2021/06/09 01:58:03;;;;;;;5.35;3.12;;;;;;;16.62;69.81;100856.63;1689843;84;25938;-61
2021/06/09 02:00:38;;;;;;;5.40;2.92;;;;;;;16.63;69.89;100858.31;1772289;80;27430;-61
2021/06/09 02:03:06;;;;;;;7.53;3.30;;;;;;;16.59;69.94;100860.51;1771929;80;25763;-61
2021/06/09 02:05:36;;;;;;;8.73;3.87;;;;;;;16.52;70.04;100854.95;1716373;82;25901;-61
2021/06/09 02:08:09;;;;;;;6.35;3.17;;;;;;;16.46;69.64;100851.55;1717612;82;25807;-61
2021/06/09 02:10:39;;;;;;;9.10;3.62;;;;;;;16.41;69.50;100851.23;1716587;83;26011;-61
2021/06/09 02:13:16;;;;;;;10.13;3.02;;;;;;;16.41;69.90;100852.59;1719012;83;27482;-61
2021/06/09 02:15:45;;;;;;;9.80;3.90;;;;;;;16.41;70.41;100849.88;1777935;79;25717;-61
2021/06/09 02:18:14;;;;;;;12.07;2.70;;;;;;;16.43;70.19;100850.55;1717608;82;25874;-61
2021/06/09 02:20:47;;;;;;;4.97;2.70;;;;;;;16.47;70.51;100843.73;1685586;84;26185;-61
2021/06/09 02:23:19;;;;;;;10.43;2.83;;;;;;;16.52;70.34;100854.08;1774843;80;25777;-61
2021/06/09 02:25:53;;;;;;;11.55;3.22;;;;;;;16.55;70.41;100857.30;1752690;80;28056;-61
2021/06/09 02:28:22;;;;;;;8.93;3.22;;;;;;;16.59;70.38;100849.64;1717456;83;25635;-61
2021/06/09 02:30:49;;;;;;;5.30;3.05;;;;;;;16.65;70.35;100853.53;1711099;82;25848;-61
2021/06/09 02:33:20;;;;;;;5.60;3.47;;;;;;;16.68;70.32;100854.55;1708508;82;25796;-62
2021/06/09 02:35:49;;;;;;;12.18;3.45;;;;;;;16.68;69.92;100851.31;1699536;84;25767;-62
2021/06/09 02:38:17;;;;;;;4.58;2.90;;;;;;;16.71;70.04;100854.22;1704371;84;27467;-62
2021/06/09 02:40:49;;;;;;;10.60;2.83;;;;;;;16.74;70.00;100857.92;1704686;84;25733;-62
2021/06/09 02:43:16;;;;;;;6.10;3.15;;;;;;;16.77;69.89;100855.36;1704502;84;25820;-62
2021/06/09 02:45:48;;;;;;;6.58;3.20;;;;;;;16.77;69.69;100852.15;1783957;79;25787;-62
2021/06/09 02:48:18;;;;;;;17.82;3.55;;;;;;;16.71;69.13;100860.48;1717607;83;25759;-62
2021/06/09 02:50:45;;;;;;;12.60;3.52;;;;;;;16.51;69.27;100857.31;1693994;84;27459;-63
2021/06/09 02:53:34;;;;;;;7.40;3.27;;;;;;;16.47;69.97;100857.84;1717248;83;25488;-62
2021/06/09 02:56:27;;;;;;;7.35;3.77;;;;;;;16.49;70.08;100862.06;1772229;80;25741;-63
2021/06/09 02:59:20;;;;;;;6.65;3.77;;;;;;;16.51;70.14;100855.09;1778743;79;25805;-62
2021/06/09 03:02:01;;;;;;;16.85;4.17;;;;;;;16.49;69.71;100861.23;1770868;80;25760;-62
2021/06/09 03:04:53;;;;;;;11.83;4.28;;;;;;;16.46;69.82;100852.90;1771781;80;27556;-62
2021/06/09 03:07:29;;;;;;;10.03;6.00;;;;;;;16.42;69.95;100857.83;1765262;80;25742;-62
2021/06/09 03:10:15;;;;;;;10.05;4.40;;;;;;;16.42;69.90;100852.41;1772218;79;25652;-62
2021/06/09 03:13:03;;;;;;;16.48;5.37;;;;;;;16.40;69.93;100858.54;1717456;83;26521;-62
2021/06/09 03:15:48;;;;;;;26.85;6.25;;;;;;;16.37;70.52;100863.44;1708164;82;25509;-62
2021/06/09 03:18:42;;;;;;;12.18;4.15;;;;;;;16.37;70.30;100852.58;1727634;82;27187;-62
2021/06/09 03:21:20;;;;;;;13.32;6.70;;;;;;;16.37;70.77;100852.58;1688646;85;25728;-62
2021/06/09 03:24:01;;;;;;;7.00;4.28;;;;;;;16.39;71.27;100854.62;1683332;84;25788;-62
2021/06/09 03:26:53;;;;;;;11.60;5.22;;;;;;;16.45;71.15;100855.80;1713633;82;26938;-62
2021/06/09 03:29:50;;;;;;;17.62;5.47;;;;;;;16.50;71.21;100856.98;1733169;81;25723;-62
2021/06/09 03:32:31;;;;;;;12.28;4.08;;;;;;;16.55;71.45;100865.44;1717575;83;27539;-62
2021/06/09 03:35:18;;;;;;;16.62;5.47;;;;;;;16.60;70.98;100855.41;1717479;82;25767;-62
2021/06/09 03:37:52;;;;;;;9.93;3.72;;;;;;;16.69;70.92;100861.69;1772623;79;25778;-62
2021/06/09 03:40:26;;;;;;;16.62;4.75;;;;;;;16.79;71.02;100858.75;1772313;80;25867;-62
2021/06/09 03:42:59;;;;;;;13.35;3.92;;;;;;;16.81;70.52;100858.91;1753114;80;25810;-62
2021/06/09 03:45:29;;;;;;;11.20;4.60;;;;;;;16.83;70.50;100856.88;1772453;79;28248;-62
2021/06/09 03:47:59;;;;;;;23.02;5.53;;;;;;;16.84;70.16;100856.38;1772602;79;25664;-62
2021/06/09 03:50:29;;;;;;;11.35;4.53;;;;;;;16.88;70.34;100856.34;1775660;79;25764;-62
2021/06/09 03:53:02;;;;;;;11.10;4.60;;;;;;;16.93;70.34;100857.17;1791440;79;25754;-61
2021/06/09 03:55:27;;;;;;;19.40;4.67;;;;;;;16.93;70.22;100862.16;1771826;80;25863;-61
2021/06/09 03:57:57;;;;;;;13.98;4.55;;;;;;;16.95;70.33;100865.52;1772589;79;28405;-61
2021/06/09 04:00:26;;;;;;;10.95;4.72;;;;;;;17.02;70.25;100869.73;1772293;80;25959;-61
2021/06/09 04:02:55;;;;;;;9.00;4.22;;;;;;;17.04;69.78;100869.06;1772492;80;25691;-61
2021/06/09 04:05:25;;;;;;;10.43;5.25;;;;;;;17.08;69.72;100876.34;1775304;79;25794;-61
2021/06/09 04:07:57;;;;;;;13.10;4.87;;;;;;;17.08;68.56;100871.74;1772152;80;25962;-61
2021/06/09 04:10:26;;;;;;;13.25;4.83;;;;;;;17.10;68.68;100866.16;1708062;82;27465;-61
2021/06/09 04:12:53;;;;;;;13.60;4.53;;;;;;;17.16;68.70;100874.45;1712879;82;25696;-61
2021/06/09 04:15:22;;;;;;;11.85;4.40;;;;;;;17.20;68.54;100878.49;1738098;81;25811;-61
2021/06/09 04:17:51;;;;;;;10.40;4.25;;;;;;;17.22;67.94;100876.95;1739971;81;25759;-61
2021/06/09 04:20:24;;;;;;;16.62;8.73;;;;;;;17.24;67.83;100877.63;1736402;81;25828;-61
2021/06/09 04:22:57;;;;;;;10.88;6.37;;;;;;;17.26;67.69;100883.73;1738773;81;27501;-66
2021/06/09 04:25:25;;;;;;;17.05;6.62;;;;;;;17.30;67.60;100885.58;1742145;80;25827;-63
2021/06/09 04:27:54;;;;;;;13.93;5.03;;;;;;;17.30;67.60;100879.62;1726537;81;25808;-62
2021/06/09 04:30:23;;;;;;;12.88;5.47;;;;;;;17.29;67.39;100877.09;1754475;81;25792;-61
2021/06/09 04:33:02;;;;;;;17.57;5.20;;;;;;;17.30;67.32;100880.15;1746082;81;25470;-61
2021/06/09 04:35:35;;;;;;;20.68;5.47;;;;;;;17.35;67.34;100877.73;1739854;81;27469;-62
2021/06/09 04:38:04;;;;;;;15.15;4.60;;;;;;;17.43;67.46;100873.63;1742444;81;25765;-63
2021/06/09 04:40:32;;;;;;;9.40;4.33;;;;;;;17.45;67.12;100872.91;1742487;81;26196;-60
2021/06/09 04:43:00;;;;;;;13.98;4.70;;;;;;;17.50;67.23;100878.68;1740667;81;25770;-62
2021/06/09 04:45:29;;;;;;;15.40;5.62;;;;;;;17.57;67.36;100872.52;1741632;80;26521;-61
2021/06/09 04:47:57;;;;;;;21.17;5.20;;;;;;;17.66;67.35;100876.88;1745780;81;27430;-61
2021/06/09 04:50:26;;;;;;;9.50;4.25;;;;;;;17.74;67.04;100873.27;1754038;81;25750;-61
2021/06/09 04:53:10;;;;;;;11.88;4.95;;;;;;;17.82;66.96;100877.28;1751496;81;25806;-61
2021/06/09 04:55:23;;;;;;;10.75;5.60;;;;;;;17.86;66.48;100871.79;1744034;81;26563;-61
2021/06/09 04:57:51;;;;;;;15.53;5.55;;;;;;;17.93;66.40;100870.03;1730444;81;25799;-61
2021/06/09 05:00:19;;;;;;;13.50;5.22;;;;;;;17.97;65.79;100871.40;1746160;81;27460;-61
2021/06/09 05:02:46;;;;;;;20.20;5.47;;;;;;;18.01;65.37;100877.33;1722933;81;25833;-61
2021/06/09 05:05:15;;;;;;;20.17;5.72;;;;;;;18.06;65.18;100879.00;1742225;80;25739;-62
2021/06/09 05:07:42;;;;;;;17.95;5.83;;;;;;;18.10;64.95;100883.03;1754290;80;26543;-62
2021/06/09 05:10:11;;;;;;;9.75;6.22;;;;;;;18.15;65.03;100879.23;1761816;80;25732;-63
2021/06/09 05:12:46;;;;;;;14.13;5.78;;;;;;;18.19;64.59;100881.59;1775021;80;26967;-63
2021/06/09 05:15:15;;;;;;;13.90;6.53;;;;;;;18.23;64.39;100880.22;1740579;80;25535;-63
2021/06/09 05:17:49;;;;;;;9.93;5.83;;;;;;;18.25;64.23;100876.27;1723510;82;25806;-62
2021/06/09 05:20:27;;;;;;;;;;;;;;;18.28;63.90;100878.63;1688480;83;25789;-63
2021/06/09 05:23:05;;;;;;;13.65;5.25;;;;;;;18.33;63.99;100881.30;1740369;80;25728;-62
2021/06/09 05:25:34;;;;;;;12.40;4.78;;;;;;;18.34;63.99;100882.47;1732318;80;27485;-63
2021/06/09 05:28:03;;;;;;;19.73;5.75;;;;;;;18.38;63.98;100881.08;1708119;82;25596;-62
2021/06/09 05:30:32;;;;;;;10.53;6.03;;;;;;;18.44;63.99;100880.86;1739021;80;25748;-62
2021/06/09 05:33:01;;;;;;;17.45;6.05;;;;;;;18.50;63.75;100880.64;1775142;80;25752;-63
2021/06/09 05:35:30;;;;;;;17.30;6.12;;;;;;;18.50;63.81;100886.08;1774801;80;25798;-63
2021/06/09 05:37:57;;;;;;;18.57;6.03;;;;;;;18.55;64.03;100883.14;1774625;79;27278;-62
2021/06/09 05:40:26;;;;;;;13.50;5.80;;;;;;;18.67;64.04;100894.41;1783973;79;25741;-63
2021/06/09 05:42:53;;;;;;;27.25;6.55;;;;;;;18.73;63.81;100895.02;1807081;79;25716;-62
2021/06/09 05:45:33;;;;;;;20.15;5.50;;;;;;;18.84;63.92;100891.50;1789069;79;25875;-63
2021/06/09 05:48:01;;;;;;;18.00;7.12;;;;;;;18.91;63.74;100896.02;1687653;83;25966;-63
2021/06/09 05:50:31;;;;;;;22.73;6.33;;;;;;;18.98;63.51;100885.75;1709597;82;27651;-63
2021/06/09 05:53:04;;;;;;;17.42;6.28;;;;;;;19.06;63.69;100885.12;1774820;79;25783;-61
2021/06/09 05:55:33;;;;;;;17.67;5.95;;;;;;;19.19;63.78;100891.79;1790501;79;25754;-61
2021/06/09 05:58:04;;;;;;;14.03;5.92;;;;;;;19.26;63.72;100882.33;1706465;82;26528;-61
2021/06/09 06:00:33;;;;;;;13.80;5.92;;;;;;;19.35;63.72;100889.38;1702502;82;25732;-62
2021/06/09 06:03:05;;;;;;;11.10;5.50;;;;;;;19.41;63.38;100876.85;1742664;82;27499;-61
2021/06/09 06:05:35;;;;;;;18.32;6.05;;;;;;;19.46;62.90;100882.56;1788680;79;25981;-62
2021/06/09 06:08:04;;;;;;;11.28;5.67;;;;;;;19.50;62.67;100887.44;1782597;79;25709;-61
2021/06/09 06:10:34;;;;;;;17.55;5.58;;;;;;;19.54;62.74;100886.53;1778696;78;25892;-66
2021/06/09 06:13:07;;;;;;;10.75;5.25;;;;;;;19.59;62.62;100893.61;1758401;79;25722;-64
2021/06/09 06:15:37;;;;;;;13.50;4.45;;;;;;;19.64;62.91;100887.58;1783178;79;28289;-66
2021/06/09 06:18:10;;;;;;;10.43;5.00;;;;;;;19.72;63.76;100891.58;1757805;79;26368;-66
2021/06/09 06:20:43;;;;;;;8.45;3.85;;;;;;;19.85;63.90;100888.16;1763051;79;26622;-64
2021/06/09 06:23:10;;;;;;;12.58;4.22;;;;;;;19.93;63.27;100888.03;1762858;79;25843;-66
2021/06/09 06:25:43;;;;;;;11.80;4.33;;;;;;;20.00;63.09;100886.20;1768778;79;25855;-64
2021/06/09 06:28:10;;;;;;;12.73;3.95;;;;;;;20.08;62.24;100887.09;1761101;80;28180;-65
2021/06/09 06:30:37;;;;;;;9.30;4.65;;;;;;;20.15;61.81;100882.53;1701169;83;26473;-65
2021/06/09 06:33:07;;;;;;;9.73;4.15;;;;;;;20.26;62.03;100881.17;1704575;82;25812;-63
2021/06/09 06:35:35;;;;;;;8.18;3.77;;;;;;;20.35;61.21;100886.78;1720973;82;26423;-65
2021/06/09 06:38:02;;;;;;;8.28;4.05;;;;;;;20.41;60.29;100883.28;1709685;82;25785;-63
2021/06/09 06:40:33;;;;;;;6.03;3.70;;;;;;;20.49;60.02;100885.86;1767290;79;27514;-63
2021/06/09 06:43:00;;;;;;;10.53;4.05;;;;;;;20.57;60.85;100880.78;1740778;80;25706;-63
2021/06/09 06:45:29;;;;;;;17.55;7.15;;;;;;;20.65;60.97;100887.95;1688407;83;25757;-65
2021/06/09 06:47:56;;;;;;;9.10;4.42;;;;;;;20.74;61.10;100875.85;1688293;83;25828;-67
2021/06/09 06:50:25;;;;;;;21.02;5.17;;;;;;;20.84;61.47;100883.70;1715759;81;26258;-66
2021/06/09 06:52:55;;;;;;;12.33;4.20;;;;;;;20.90;61.43;100883.39;1725341;82;28318;-65
2021/06/09 06:55:24;;;;;;;10.70;4.20;;;;;;;20.97;60.94;100879.34;1725273;81;25910;-65
2021/06/09 06:57:53;;;;;;;9.23;4.22;;;;;;;21.05;61.03;100879.16;1749368;81;25804;-65
2021/06/09 07:00:27;;;;;;;11.73;4.30;;;;;;;21.11;60.46;100885.21;1746076;80;25762;-65
2021/06/09 07:02:58;;;;;;;7.58;4.22;;;;;;;21.17;59.25;100878.91;1693240;83;26482;-70
2021/06/09 07:05:34;;;;;;;10.72;4.60;;;;;;;21.23;59.19;100879.45;1721586;81;28470;-65
2021/06/09 07:08:05;;;;;;;8.00;4.92;;;;;;;21.28;58.21;100884.85;1733597;82;25902;-63
2021/06/09 07:10:34;;;;;;;6.83;3.77;;;;;;;21.33;57.91;100876.36;1803959;79;25803;-64
2021/06/09 07:13:05;;;;;;;11.03;3.52;;;;;;;21.42;58.25;100879.73;1803995;79;26597;-67
2021/06/09 07:15:39;;;;;;;13.08;4.17;;;;;;;21.52;58.45;100869.24;1723019;81;26141;-65
2021/06/09 07:18:06;;;;;;;12.68;3.90;;;;;;;21.60;57.89;100872.36;1739107;79;27870;-65
2021/06/09 07:20:33;;;;;;;14.95;4.30;;;;;;;21.71;56.41;100876.38;1769446;79;25834;-64
2021/06/09 07:23:01;;;;;;;13.65;4.60;;;;;;;21.77;56.56;100868.69;1782673;79;26369;-62
2021/06/09 07:25:31;;;;;;;10.20;3.90;;;;;;;21.85;57.01;100865.75;1767161;79;26417;-63
2021/06/09 07:28:04;;;;;;;14.18;4.70;;;;;;;;;;1777195;79;25687;-62
2021/06/09 07:30:35;;;;;;;22.93;5.03;;;;;;;22.06;57.26;100862.50;1757925;80;27467;-62
2021/06/09 07:33:04;;;;;;;9.00;3.70;;;;;;;22.17;57.46;100855.54;1775725;79;25715;-62
2021/06/09 07:35:33;;;;;;;15.50;4.80;;;;;;;22.26;56.40;100861.66;1773556;79;25719;-62
2021/06/09 07:38:08;;;;;;;14.07;4.42;;;;;;;22.31;55.94;100858.61;1752009;80;25782;-62
2021/06/09 07:40:42;;;;;;;9.85;4.42;;;;;;;22.41;56.03;100861.48;1755520;79;25788;-62
2021/06/09 07:43:14;;;;;;;13.40;4.03;;;;;;;22.49;56.01;100864.00;1700816;83;28357;-62
2021/06/09 07:45:43;;;;;;;9.10;4.33;;;;;;;22.56;55.85;100863.95;1713463;83;25918;-61
2021/06/09 07:48:11;;;;;;;8.05;4.10;;;;;;;22.60;54.12;100865.23;1705166;82;26598;-61
2021/06/09 07:50:43;;;;;;;13.65;4.20;;;;;;;22.66;54.15;100867.11;1711931;83;25747;-64
2021/06/09 07:53:12;;;;;;;16.07;4.58;;;;;;;22.73;54.26;100864.36;1699766;84;25707;-61
2021/06/09 07:55:46;;;;;;;9.23;4.12;;;;;;;22.87;54.86;100860.50;1691383;82;27447;-61
2021/06/09 07:58:16;;;;;;;10.58;4.50;;;;;;;23.04;55.16;100865.54;1694990;84;25849;-62
2021/06/09 08:00:43;;;;;;;13.65;4.37;;;;;;;23.18;53.91;100864.92;1775081;80;25717;-62
2021/06/09 08:03:11;;;;;;;9.13;3.98;;;;;;;23.32;53.44;100864.36;1754449;79;25882;-61
2021/06/09 08:05:40;;;;;;;7.90;3.77;;;;;;;23.48;53.71;100866.63;1760589;80;25438;-61
2021/06/09 08:08:09;;;;;;;11.10;3.80;;;;;;;23.57;52.22;100861.70;1761146;79;27526;-61
2021/06/09 08:10:38;;;;;;;9.63;3.90;;;;;;;23.65;51.70;100869.67;1783580;79;25666;-61
2021/06/09 08:13:06;;;;;;;15.10;3.95;;;;;;;23.76;51.99;100867.60;1775332;79;25754;-61
2021/06/09 08:15:34;;;;;;;8.15;3.10;;;;;;;23.96;52.38;100867.17;1767737;79;26492;-62
2021/06/09 08:18:04;;;;;;;16.00;4.10;;;;;;;24.10;51.66;100874.77;1809868;79;25749;-62
2021/06/09 08:20:31;;;;;;;15.43;4.85;;;;;;;24.26;51.59;100872.00;1809728;79;27490;-62
2021/06/09 08:22:58;;;;;;;10.78;4.20;;;;;;;24.35;51.63;100871.48;1786206;79;26332;-62
2021/06/09 08:25:25;;;;;;;11.95;4.28;;;;;;;24.49;52.07;100872.75;1773929;79;25517;-62
2021/06/09 08:27:54;;;;;;;9.43;4.10;;;;;;;24.64;51.25;100871.84;1768462;79;25774;-62
2021/06/09 08:30:23;;;;;;;9.53;3.70;;;;;;;24.80;50.94;100869.06;1761139;80;25820;-62
2021/06/09 08:32:50;;;;;;;7.42;3.90;;;;;;;24.89;49.65;100869.58;1764262;79;27416;-62
2021/06/09 08:35:18;;;;;;;15.72;4.00;;;;;;;24.93;48.97;100872.72;1735437;82;25466;-62
2021/06/09 08:37:45;;;;;;;9.48;3.60;;;;;;;25.07;48.60;100876.15;1777820;80;25895;-63
2021/06/09 08:40:13;;;;;;;6.83;3.67;;;;;;;25.08;48.59;100880.06;1728681;82;26376;-63
2021/06/09 08:42:43;;;;;;;10.05;3.75;;;;;;;25.12;48.11;100872.19;1703533;82;25785;-63
2021/06/09 08:45:12;;;;;;;11.33;3.62;;;;;;;25.16;47.28;100874.25;1746968;80;27467;-62
2021/06/09 08:47:40;;;;;;;14.23;4.30;;;;;;;25.04;46.75;100873.88;1757358;80;25834;-63
2021/06/09 08:50:11;;;;;;;7.60;3.77;;;;;;;25.05;48.04;100874.19;1780365;79;25734;-63
2021/06/09 08:52:46;;;;;;;10.90;3.87;;;;;;;25.12;47.74;100873.02;1770161;79;26436;-63
2021/06/09 08:55:15;;;;;;;5.92;4.03;;;;;;;25.09;47.70;100868.51;1760865;79;25826;-62
2021/06/09 08:57:43;;;;;;;7.95;3.30;;;;;;;25.23;48.43;100873.31;1763156;79;27439;-63
2021/06/09 09:00:14;;;;;;;15.30;4.90;;;;;;;25.36;47.80;100861.28;1749386;80;25819;-62
2021/06/09 09:02:41;;;;;;;12.53;3.72;;;;;;;25.53;47.27;100860.13;1786045;79;25723;-63
2021/06/09 09:05:10;;;;;;;12.58;4.08;;;;;;;25.59;46.87;100864.17;1775847;79;26495;-63
2021/06/09 09:07:38;;;;;;;9.40;3.60;;;;;;;25.72;46.40;100864.52;1774757;79;25738;-62
2021/06/09 09:10:08;;;;;;;9.15;3.45;;;;;;;25.82;45.83;100858.41;1762766;80;28184;-63
2021/06/09 09:12:36;;;;;;;9.78;4.33;;;;;;;25.98;45.47;100856.90;1769901;79;25730;-62
2021/06/09 09:15:06;;;;;;;10.13;4.12;;;;;;;26.16;45.61;100857.36;1755810;79;25619;-63
2021/06/09 09:17:53;;;;;;;10.85;4.70;;;;;;;26.50;45.46;100851.25;1771997;79;25803;-62
2021/06/09 09:20:31;;;;;;;12.35;3.33;;;;;;;26.83;44.85;100851.17;1762958;80;25751;-63
2021/06/09 09:23:02;;;;;;;11.50;3.45;;;;;;;27.15;43.05;100847.98;1759628;80;27476;-63
2021/06/09 09:25:31;;;;;;;9.10;3.45;;;;;;;27.34;42.47;100858.28;1732633;82;25455;-62
2021/06/09 09:28:03;;;;;;;12.30;4.80;;;;;;;27.49;41.21;100853.63;1733913;79;25543;-63
2021/06/09 09:30:33;;;;;;;6.50;3.42;;;;;;;27.72;41.63;100844.91;1769249;79;25753;-63
2021/06/09 09:33:11;;;;;;;6.40;3.42;;;;;;;27.96;42.07;100841.45;1759914;80;25756;-63
2021/06/09 09:35:42;;;;;;;10.75;3.45;;;;;;;28.24;42.14;100845.25;1773560;79;27446;-63
2021/06/09 09:38:15;;;;;;;7.12;3.05;;;;;;;28.53;40.69;100839.03;1774973;80;25779;-63
2021/06/09 09:41:11;;;;;;;9.48;3.37;;;;;;;28.87;38.48;100842.28;1786780;79;26429;-63
2021/06/09 09:43:45;;;;;;;10.43;3.45;;;;;;;29.10;38.73;100848.63;1758592;79;25790;-63
2021/06/09 09:46:20;;;;;;;8.25;3.17;;;;;;;29.18;38.29;100833.80;1752535;81;25707;-63
2021/06/09 09:49:09;;;;;;;16.27;3.52;;;;;;;29.20;38.86;100832.99;1757006;81;27624;-63
2021/06/09 09:51:51;;;;;;;3.40;3.00;;;;;;;29.23;37.01;100831.62;1753789;80;25508;-63
2021/06/09 09:54:35;;;;;;;10.38;2.95;;;;;;;29.52;34.46;100824.48;1761526;79;25720;-62
2021/06/09 09:57:11;;;;;;;11.78;2.47;;;;;;;29.73;34.44;100814.41;1753387;79;25879;-62
2021/06/09 09:59:39;;;;;;;5.97;2.98;;;;;;;29.95;33.83;100812.96;1728380;81;25698;-64
2021/06/09 10:02:17;;;;;;;12.23;2.75;;;;;;;30.31;33.59;100802.64;1784132;80;28105;-65
2021/06/09 10:04:49;;;;;;;5.10;3.00;;;;;;;30.74;33.86;100806.25;1781680;80;25797;-63
2021/06/09 10:07:14;;;;;;;13.50;3.02;;;;;;;31.25;32.25;100800.59;1770110;81;25755;-62
2021/06/09 10:09:44;;;;;;;13.18;3.27;;;;;;;31.52;30.49;100796.73;1766883;80;25936;-62
2021/06/09 10:12:15;;;;;;;4.28;2.45;;;;;;;31.30;30.85;100801.97;1743171;79;25772;-62
2021/06/09 10:14:49;;;;;;;11.50;2.90;;;;;;;30.88;32.77;100794.08;1738484;81;27449;-62
2021/06/09 10:17:29;;;;;;;7.47;2.70;;;;;;;30.66;33.84;100792.03;1739304;81;25661;-62
2021/06/09 10:19:59;;;;;;;6.00;2.62;;;;;;;30.38;34.26;100799.10;1747447;81;25446;-62
2021/06/09 10:22:33;;;;;;;10.10;3.25;;;;;;;30.26;34.05;100793.73;1748396;80;25780;-62
2021/06/09 10:25:10;;;;;;;5.60;3.10;;;;;;;30.58;33.27;100788.68;1749899;81;25722;-63
2021/06/09 10:27:51;;;;;;;10.55;3.12;;;;;;;31.43;33.07;100779.75;1741108;82;28327;-63
2021/06/09 10:30:23;;;;;;;10.30;2.90;;;;;;;32.19;30.60;100770.27;1737186;81;25730;-64
2021/06/09 10:32:58;;;;;;;12.53;7.15;;;;;;;32.73;28.66;100770.13;1677433;84;25569;-64
2021/06/09 10:35:41;;;;;;;8.60;2.33;;;;;;;33.18;28.90;100772.94;1707328;84;26389;-63
2021/06/09 10:38:09;;;;;;;10.08;2.08;;;;;;;34.02;26.40;100758.06;1707515;84;25796;-63
2021/06/09 10:40:36;;;;;;;9.58;2.40;;;;;;;34.41;27.75;100765.20;1707712;84;27428;-64
2021/06/09 10:43:06;;;;;;;7.65;1.72;;;;;;;35.07;26.18;100768.28;1707505;84;25700;-63
2021/06/09 10:45:36;;;;;;;3.87;2.02;;;;;;;35.33;25.59;100767.88;1707906;84;25575;-63
2021/06/09 10:48:04;;;;;;;2.83;1.60;;;;;;;35.70;24.79;100760.00;1693365;84;26746;-63
2021/06/09 10:50:32;;;;;;;5.87;1.82;;;;;;;35.85;24.39;100753.89;1707523;84;26116;-63
2021/06/09 10:53:06;;;;;;;4.67;1.95;;;;;;;36.46;24.14;100751.06;1707321;84;27450;-63
2021/06/09 10:55:30;;;;;;;4.58;2.10;;;;;;;37.05;22.40;100747.53;1695695;83;25763;-63
2021/06/09 10:57:59;;;;;;;7.10;2.15;;;;;;;36.40;21.58;100747.51;1678920;85;25768;-64
2021/06/09 11:00:27;;;;;;;8.95;1.90;;;;;;;36.29;22.55;100745.50;1686766;84;25789;-64
2021/06/09 11:02:59;;;;;;;3.77;1.67;;;;;;;36.56;23.10;100745.25;1707554;84;25804;-63
2021/06/09 11:05:28;;;;;;;7.37;1.65;;;;;;;37.19;21.20;100737.11;1701284;83;27419;-64
2021/06/09 11:07:55;;;;;;;7.03;2.40;;;;;;;36.91;20.94;100730.76;1698330;83;25793;-64
2021/06/09 11:10:43;;;;;;;7.90;1.90;;;;;;;36.19;21.61;100732.52;1703003;82;25849;-64
2021/06/09 11:13:13;;;;;;;6.83;1.60;;;;;;;36.64;21.29;100736.66;1696630;82;25879;-64
2021/06/09 11:15:40;;;;;;;5.87;1.40;;;;;;;37.22;20.03;100732.25;1768016;79;25863;-64
2021/06/09 11:18:16;;;;;;;2.85;1.40;;;;;;;37.63;20.42;100729.59;1789562;79;27447;-62
2021/06/09 11:20:49;;;;;;;5.15;1.55;;;;;;;38.17;19.36;100717.73;1761770;80;25656;-62
2021/06/09 11:23:37;;;;;;;8.53;1.85;;;;;;;38.40;18.75;100714.02;1773179;80;25741;-62
2021/06/09 11:26:06;;;;;;;5.25;1.22;;;;;;;38.50;19.07;100717.94;1778568;79;25833;-62
2021/06/09 11:28:40;;;;;;;2.35;1.90;;;;;;;38.86;17.13;100715.44;1767776;79;26513;-63
2021/06/09 11:31:10;;;;;;;8.90;1.92;;;;;;;39.12;17.04;100715.41;1754244;81;27457;-63
2021/06/09 11:34:02;;;;;;;5.10;1.50;;;;;;;39.35;17.74;100717.23;1754212;80;25823;-63
2021/06/09 11:36:36;;;;;;;2.10;1.37;;;;;;;39.72;17.30;100716.27;1768222;80;25607;-63
2021/06/09 11:39:20;;;;;;;5.70;1.70;;;;;;;39.75;16.82;100708.56;1769910;81;26242;-63
2021/06/09 11:41:49;;;;;;;16.48;1.57;;;;;;;39.85;16.95;100703.12;1769520;80;25742;-63
2021/06/09 11:44:30;;;;;;;8.20;1.87;;;;;;;40.12;16.48;100701.83;1773718;80;28157;-64